sensor_id;sensor_type;location;lat;lon;timestamp;temperature;humidity
63260;DHT22;49390;51.380;0.098;2024-02-28T00:02:20;9.00;99.90
63260;DHT22;49390;51.380;0.098;2024-02-28T00:04:48;9.00;99.90
63260;DHT22;49390;51.380;0.098;2024-02-28T00:07:16;9.00;99.90
63260;DHT22;49390;51.380;0.098;2024-02-28T00:09:45;9.00;99.90
63260;DHT22;49390;51.380;0.098;2024-02-28T00:12:13;9.00;99.90
63260;DHT22;49390;51.380;0.098;2024-02-28T00:14:42;8.90;99.90
63260;DHT22;49390;51.380;0.098;2024-02-28T00:17:12;9.00;99.90
63260;DHT22;49390;51.380;0.098;2024-02-28T00:19:40;9.00;99.90
63260;DHT22;49390;51.380;0.098;2024-02-28T00:22:09;8.90;99.90
63260;DHT22;49390;51.380;0.098;2024-02-28T00:24:37;8.90;99.90
63260;DHT22;49390;51.380;0.098;2024-02-28T00:27:05;8.90;99.90
63260;DHT22;49390;51.380;0.098;2024-02-28T00:29:33;9.00;99.90
63260;DHT22;49390;51.380;0.098;2024-02-28T00:32:01;8.90;99.90
63260;DHT22;49390;51.380;0.098;2024-02-28T00:34:28;8.90;99.90
63260;DHT22;49390;51.380;0.098;2024-02-28T00:36:57;9.00;99.90
63260;DHT22;49390;51.380;0.098;2024-02-28T00:39:25;9.10;99.90
63260;DHT22;49390;51.380;0.098;2024-02-28T00:41:53;9.00;99.90
63260;DHT22;49390;51.380;0.098;2024-02-28T00:44:20;9.00;99.90
63260;DHT22;49390;51.380;0.098;2024-02-28T00:46:48;9.00;99.90
63260;DHT22;49390;51.380;0.098;2024-02-28T00:49:16;8.90;99.90
63260;DHT22;49390;51.380;0.098;2024-02-28T00:51:46;8.90;99.90
63260;DHT22;49390;51.380;0.098;2024-02-28T00:54:14;8.90;99.90
63260;DHT22;49390;51.380;0.098;2024-02-28T00:56:41;8.90;99.90
63260;DHT22;49390;51.380;0.098;2024-02-28T00:59:09;8.90;99.90
63260;DHT22;49390;51.380;0.098;2024-02-28T01:01:40;8.90;99.90
63260;DHT22;49390;51.380;0.098;2024-02-28T01:04:09;8.80;99.90
63260;DHT22;49390;51.380;0.098;2024-02-28T01:06:38;8.90;99.90
63260;DHT22;49390;51.380;0.098;2024-02-28T01:09:06;8.80;99.90
63260;DHT22;49390;51.380;0.098;2024-02-28T01:11:34;8.80;99.90
63260;DHT22;49390;51.380;0.098;2024-02-28T01:14:01;8.80;99.90
63260;DHT22;49390;51.380;0.098;2024-02-28T01:16:30;8.80;99.90
63260;DHT22;49390;51.380;0.098;2024-02-28T01:18:58;8.80;99.90
63260;DHT22;49390;51.380;0.098;2024-02-28T01:21:26;8.80;99.90
63260;DHT22;49390;51.380;0.098;2024-02-28T01:23:54;8.80;99.90
63260;DHT22;49390;51.380;0.098;2024-02-28T01:26:22;8.70;99.90
63260;DHT22;49390;51.380;0.098;2024-02-28T01:28:50;8.80;99.90
63260;DHT22;49390;51.380;0.098;2024-02-28T01:31:18;8.70;99.90
63260;DHT22;49390;51.380;0.098;2024-02-28T01:33:46;8.70;99.90
63260;DHT22;49390;51.380;0.098;2024-02-28T01:36:14;8.70;99.90
63260;DHT22;49390;51.380;0.098;2024-02-28T01:38:42;8.70;99.90
63260;DHT22;49390;51.380;0.098;2024-02-28T01:41:10;8.70;99.90
63260;DHT22;49390;51.380;0.098;2024-02-28T01:43:38;8.70;99.90
63260;DHT22;49390;51.380;0.098;2024-02-28T01:46:20;8.80;99.90
63260;DHT22;49390;51.380;0.098;2024-02-28T01:48:49;8.70;99.90
63260;DHT22;49390;51.380;0.098;2024-02-28T01:51:18;8.70;99.90
63260;DHT22;49390;51.380;0.098;2024-02-28T01:53:46;8.80;99.90
63260;DHT22;49390;51.380;0.098;2024-02-28T01:56:14;8.70;99.90
63260;DHT22;49390;51.380;0.098;2024-02-28T01:58:46;8.80;99.90
63260;DHT22;49390;51.380;0.098;2024-02-28T02:01:15;8.80;99.90
63260;DHT22;49390;51.380;0.098;2024-02-28T02:03:48;8.80;99.90
63260;DHT22;49390;51.380;0.098;2024-02-28T02:06:17;8.80;99.90
63260;DHT22;49390;51.380;0.098;2024-02-28T02:08:45;8.80;99.90
63260;DHT22;49390;51.380;0.098;2024-02-28T02:11:17;8.80;99.90
63260;DHT22;49390;51.380;0.098;2024-02-28T02:13:53;8.80;99.90
63260;DHT22;49390;51.380;0.098;2024-02-28T02:16:21;8.70;99.90
63260;DHT22;49390;51.380;0.098;2024-02-28T02:18:54;8.70;99.90
63260;DHT22;49390;51.380;0.098;2024-02-28T02:21:24;8.70;99.90
63260;DHT22;49390;51.380;0.098;2024-02-28T02:23:54;8.70;99.90
63260;DHT22;49390;51.380;0.098;2024-02-28T02:26:22;8.70;99.90
63260;DHT22;49390;51.380;0.098;2024-02-28T02:28:49;8.70;99.90
63260;DHT22;49390;51.380;0.098;2024-02-28T02:31:17;8.70;99.90
63260;DHT22;49390;51.380;0.098;2024-02-28T02:33:45;8.70;99.90
63260;DHT22;49390;51.380;0.098;2024-02-28T02:36:15;8.60;99.90
63260;DHT22;49390;51.380;0.098;2024-02-28T02:38:42;8.50;99.90
63260;DHT22;49390;51.380;0.098;2024-02-28T02:41:10;8.40;99.90
63260;DHT22;49390;51.380;0.098;2024-02-28T02:43:41;8.40;99.90
63260;DHT22;49390;51.380;0.098;2024-02-28T02:46:15;8.30;99.90
63260;DHT22;49390;51.380;0.098;2024-02-28T02:48:43;8.20;99.90
63260;DHT22;49390;51.380;0.098;2024-02-28T02:51:45;8.30;99.90
63260;DHT22;49390;51.380;0.098;2024-02-28T02:54:40;8.20;99.90
63260;DHT22;49390;51.380;0.098;2024-02-28T02:57:10;8.10;99.90
63260;DHT22;49390;51.380;0.098;2024-02-28T02:59:38;8.10;99.90
63260;DHT22;49390;51.380;0.098;2024-02-28T03:02:06;8.10;99.90
63260;DHT22;49390;51.380;0.098;2024-02-28T03:04:37;8.10;99.90
63260;DHT22;49390;51.380;0.098;2024-02-28T03:07:08;8.10;99.90
63260;DHT22;49390;51.380;0.098;2024-02-28T03:09:38;8.00;99.90
63260;DHT22;49390;51.380;0.098;2024-02-28T03:12:10;8.00;99.90
63260;DHT22;49390;51.380;0.098;2024-02-28T03:14:38;8.00;99.90
63260;DHT22;49390;51.380;0.098;2024-02-28T03:17:07;8.00;99.90
63260;DHT22;49390;51.380;0.098;2024-02-28T03:19:35;8.00;99.90
63260;DHT22;49390;51.380;0.098;2024-02-28T03:22:04;7.90;99.90
63260;DHT22;49390;51.380;0.098;2024-02-28T03:24:35;7.90;99.90
63260;DHT22;49390;51.380;0.098;2024-02-28T03:27:04;7.90;99.90
63260;DHT22;49390;51.380;0.098;2024-02-28T03:55:17;7.60;99.90
63260;DHT22;49390;51.380;0.098;2024-02-28T04:40:30;7.60;99.90
63260;DHT22;49390;51.380;0.098;2024-02-28T05:03:37;7.50;99.90
63260;DHT22;49390;51.380;0.098;2024-02-28T05:11:39;7.50;99.90
63260;DHT22;49390;51.380;0.098;2024-02-28T06:26:45;7.90;99.90
63260;DHT22;49390;51.380;0.098;2024-02-28T06:29:19;8.00;99.90
63260;DHT22;49390;51.380;0.098;2024-02-28T06:31:51;7.90;99.90
63260;DHT22;49390;51.380;0.098;2024-02-28T06:34:19;7.90;99.90
63260;DHT22;49390;51.380;0.098;2024-02-28T06:36:48;8.00;99.90
63260;DHT22;49390;51.380;0.098;2024-02-28T06:39:18;8.00;99.90
63260;DHT22;49390;51.380;0.098;2024-02-28T06:41:46;8.00;99.90
63260;DHT22;49390;51.380;0.098;2024-02-28T06:44:15;8.00;99.90
63260;DHT22;49390;51.380;0.098;2024-02-28T06:46:44;8.00;99.90
63260;DHT22;49390;51.380;0.098;2024-02-28T06:49:12;8.00;99.90
63260;DHT22;49390;51.380;0.098;2024-02-28T06:51:40;8.00;99.90
63260;DHT22;49390;51.380;0.098;2024-02-28T06:54:10;8.00;99.90
63260;DHT22;49390;51.380;0.098;2024-02-28T06:56:38;8.00;99.90
63260;DHT22;49390;51.380;0.098;2024-02-28T06:59:06;7.80;99.90
63260;DHT22;49390;51.380;0.098;2024-02-28T07:01:34;8.00;99.90
63260;DHT22;49390;51.380;0.098;2024-02-28T07:04:03;8.00;99.90
63260;DHT22;49390;51.380;0.098;2024-02-28T07:06:31;8.00;99.90
63260;DHT22;49390;51.380;0.098;2024-02-28T07:08:59;7.90;99.90
63260;DHT22;49390;51.380;0.098;2024-02-28T07:11:28;8.00;99.90
63260;DHT22;49390;51.380;0.098;2024-02-28T07:13:56;8.00;99.90
63260;DHT22;49390;51.380;0.098;2024-02-28T07:16:30;8.00;99.90
63260;DHT22;49390;51.380;0.098;2024-02-28T07:19:03;8.00;99.90
63260;DHT22;49390;51.380;0.098;2024-02-28T07:21:31;8.00;99.90
63260;DHT22;49390;51.380;0.098;2024-02-28T07:24:00;8.00;99.90
63260;DHT22;49390;51.380;0.098;2024-02-28T07:26:28;8.00;99.90
63260;DHT22;49390;51.380;0.098;2024-02-28T07:28:56;8.00;99.90
63260;DHT22;49390;51.380;0.098;2024-02-28T07:31:25;8.00;99.90
63260;DHT22;49390;51.380;0.098;2024-02-28T07:33:53;8.00;99.90
63260;DHT22;49390;51.380;0.098;2024-02-28T07:36:21;8.00;99.90
63260;DHT22;49390;51.380;0.098;2024-02-28T07:38:50;8.00;99.90
63260;DHT22;49390;51.380;0.098;2024-02-28T07:41:20;8.00;99.90
63260;DHT22;49390;51.380;0.098;2024-02-28T07:43:48;8.00;99.90
63260;DHT22;49390;51.380;0.098;2024-02-28T07:46:16;8.00;99.90
63260;DHT22;49390;51.380;0.098;2024-02-28T07:48:44;8.10;99.90
63260;DHT22;49390;51.380;0.098;2024-02-28T07:51:12;8.10;99.90
63260;DHT22;49390;51.380;0.098;2024-02-28T07:53:41;8.20;99.90
63260;DHT22;49390;51.380;0.098;2024-02-28T07:56:18;8.20;99.90
63260;DHT22;49390;51.380;0.098;2024-02-28T07:58:47;8.30;99.90
63260;DHT22;49390;51.380;0.098;2024-02-28T08:01:15;8.30;99.90
63260;DHT22;49390;51.380;0.098;2024-02-28T08:03:45;8.30;99.90
63260;DHT22;49390;51.380;0.098;2024-02-28T08:06:13;8.40;99.90
63260;DHT22;49390;51.380;0.098;2024-02-28T08:08:44;8.40;99.90
63260;DHT22;49390;51.380;0.098;2024-02-28T08:11:13;8.50;99.90
63260;DHT22;49390;51.380;0.098;2024-02-28T08:13:42;8.50;99.90
63260;DHT22;49390;51.380;0.098;2024-02-28T08:16:13;8.50;99.90
63260;DHT22;49390;51.380;0.098;2024-02-28T08:18:41;8.60;99.90
63260;DHT22;49390;51.380;0.098;2024-02-28T08:21:10;8.60;99.90
63260;DHT22;49390;51.380;0.098;2024-02-28T08:23:38;8.60;99.90
63260;DHT22;49390;51.380;0.098;2024-02-28T08:26:06;8.60;99.90
63260;DHT22;49390;51.380;0.098;2024-02-28T08:28:34;8.60;99.90
63260;DHT22;49390;51.380;0.098;2024-02-28T08:31:02;8.70;99.90
63260;DHT22;49390;51.380;0.098;2024-02-28T08:33:30;8.70;99.90
63260;DHT22;49390;51.380;0.098;2024-02-28T08:35:58;8.70;99.90
63260;DHT22;49390;51.380;0.098;2024-02-28T08:38:26;8.80;99.90
63260;DHT22;49390;51.380;0.098;2024-02-28T08:40:54;8.80;99.90
63260;DHT22;49390;51.380;0.098;2024-02-28T08:43:22;8.90;99.90
63260;DHT22;49390;51.380;0.098;2024-02-28T08:45:50;8.90;99.90
63260;DHT22;49390;51.380;0.098;2024-02-28T08:48:19;8.90;99.90
63260;DHT22;49390;51.380;0.098;2024-02-28T08:50:47;8.90;99.90
63260;DHT22;49390;51.380;0.098;2024-02-28T08:53:15;8.90;99.90
63260;DHT22;49390;51.380;0.098;2024-02-28T08:55:43;9.00;99.90
63260;DHT22;49390;51.380;0.098;2024-02-28T08:58:11;9.00;99.90
63260;DHT22;49390;51.380;0.098;2024-02-28T09:00:39;9.00;99.90
63260;DHT22;49390;51.380;0.098;2024-02-28T09:03:08;9.10;99.90
63260;DHT22;49390;51.380;0.098;2024-02-28T09:05:35;9.20;99.90
63260;DHT22;49390;51.380;0.098;2024-02-28T09:08:04;9.20;99.90
63260;DHT22;49390;51.380;0.098;2024-02-28T09:10:31;9.20;99.90
63260;DHT22;49390;51.380;0.098;2024-02-28T09:13:02;9.30;99.90
63260;DHT22;49390;51.380;0.098;2024-02-28T09:15:30;9.30;99.90
63260;DHT22;49390;51.380;0.098;2024-02-28T09:17:58;9.40;99.90
63260;DHT22;49390;51.380;0.098;2024-02-28T09:20:26;9.40;99.90
63260;DHT22;49390;51.380;0.098;2024-02-28T09:22:54;9.50;99.90
63260;DHT22;49390;51.380;0.098;2024-02-28T09:25:22;9.50;99.90
63260;DHT22;49390;51.380;0.098;2024-02-28T09:27:54;9.60;99.90
63260;DHT22;49390;51.380;0.098;2024-02-28T09:30:22;9.60;99.90
63260;DHT22;49390;51.380;0.098;2024-02-28T09:32:52;9.70;99.90
63260;DHT22;49390;51.380;0.098;2024-02-28T09:35:20;9.70;99.90
63260;DHT22;49390;51.380;0.098;2024-02-28T09:37:48;9.80;99.90
63260;DHT22;49390;51.380;0.098;2024-02-28T09:40:16;9.80;99.90
63260;DHT22;49390;51.380;0.098;2024-02-28T09:42:52;9.90;99.90
63260;DHT22;49390;51.380;0.098;2024-02-28T09:45:21;10.00;99.90
63260;DHT22;49390;51.380;0.098;2024-02-28T09:47:50;10.00;99.90
63260;DHT22;49390;51.380;0.098;2024-02-28T09:50:18;10.00;99.90
63260;DHT22;49390;51.380;0.098;2024-02-28T09:52:47;10.10;99.90
63260;DHT22;49390;51.380;0.098;2024-02-28T09:55:28;10.10;99.90
63260;DHT22;49390;51.380;0.098;2024-02-28T09:57:57;10.10;99.90
63260;DHT22;49390;51.380;0.098;2024-02-28T10:00:25;10.10;99.90
63260;DHT22;49390;51.380;0.098;2024-02-28T10:02:56;10.20;99.90
63260;DHT22;49390;51.380;0.098;2024-02-28T10:05:25;10.20;99.90
63260;DHT22;49390;51.380;0.098;2024-02-28T10:07:55;10.20;99.90
63260;DHT22;49390;51.380;0.098;2024-02-28T10:10:22;10.30;99.90
63260;DHT22;49390;51.380;0.098;2024-02-28T10:12:51;10.30;99.90
63260;DHT22;49390;51.380;0.098;2024-02-28T10:15:18;10.30;99.90
63260;DHT22;49390;51.380;0.098;2024-02-28T10:17:46;10.30;99.90
63260;DHT22;49390;51.380;0.098;2024-02-28T10:20:14;10.30;99.90
63260;DHT22;49390;51.380;0.098;2024-02-28T10:22:42;10.30;99.90
63260;DHT22;49390;51.380;0.098;2024-02-28T10:25:10;10.40;99.90
63260;DHT22;49390;51.380;0.098;2024-02-28T10:27:38;10.30;99.90
63260;DHT22;49390;51.380;0.098;2024-02-28T10:30:06;10.40;99.90
63260;DHT22;49390;51.380;0.098;2024-02-28T10:32:35;10.40;99.90
63260;DHT22;49390;51.380;0.098;2024-02-28T10:35:06;10.40;99.90
63260;DHT22;49390;51.380;0.098;2024-02-28T10:37:39;10.50;99.90
63260;DHT22;49390;51.380;0.098;2024-02-28T10:40:07;10.50;99.90
63260;DHT22;49390;51.380;0.098;2024-02-28T10:42:36;10.60;99.90
63260;DHT22;49390;51.380;0.098;2024-02-28T10:45:05;10.60;99.90
63260;DHT22;49390;51.380;0.098;2024-02-28T10:47:51;10.60;99.90
63260;DHT22;49390;51.380;0.098;2024-02-28T10:50:20;10.60;99.90
63260;DHT22;49390;51.380;0.098;2024-02-28T10:52:49;10.70;99.90
63260;DHT22;49390;51.380;0.098;2024-02-28T10:55:22;10.70;99.90
63260;DHT22;49390;51.380;0.098;2024-02-28T10:58:06;10.80;99.90
63260;DHT22;49390;51.380;0.098;2024-02-28T11:00:39;10.80;99.90
63260;DHT22;49390;51.380;0.098;2024-02-28T11:03:10;10.90;99.90
63260;DHT22;49390;51.380;0.098;2024-02-28T11:05:43;11.00;99.90
63260;DHT22;49390;51.380;0.098;2024-02-28T11:08:24;11.00;99.90
63260;DHT22;49390;51.380;0.098;2024-02-28T11:11:02;11.00;99.90
63260;DHT22;49390;51.380;0.098;2024-02-28T11:13:34;11.10;99.90
63260;DHT22;49390;51.380;0.098;2024-02-28T11:16:09;11.10;99.90
63260;DHT22;49390;51.380;0.098;2024-02-28T11:18:51;11.10;99.90
63260;DHT22;49390;51.380;0.098;2024-02-28T11:21:18;11.30;99.90
63260;DHT22;49390;51.380;0.098;2024-02-28T11:23:47;11.20;99.90
63260;DHT22;49390;51.380;0.098;2024-02-28T11:26:15;11.40;99.90
63260;DHT22;49390;51.380;0.098;2024-02-28T11:28:44;11.40;99.90
63260;DHT22;49390;51.380;0.098;2024-02-28T11:31:11;11.50;99.90
63260;DHT22;49390;51.380;0.098;2024-02-28T11:33:39;11.50;99.90
63260;DHT22;49390;51.380;0.098;2024-02-28T11:36:07;11.60;99.90
63260;DHT22;49390;51.380;0.098;2024-02-28T11:38:35;11.60;99.90
63260;DHT22;49390;51.380;0.098;2024-02-28T11:41:06;11.60;99.90
63260;DHT22;49390;51.380;0.098;2024-02-28T11:43:35;11.70;99.90
63260;DHT22;49390;51.380;0.098;2024-02-28T11:46:18;11.70;99.90
63260;DHT22;49390;51.380;0.098;2024-02-28T11:48:46;11.80;99.90
63260;DHT22;49390;51.380;0.098;2024-02-28T11:51:14;11.90;99.90
63260;DHT22;49390;51.380;0.098;2024-02-28T11:53:43;12.00;99.90
63260;DHT22;49390;51.380;0.098;2024-02-28T11:56:10;12.20;99.90
63260;DHT22;49390;51.380;0.098;2024-02-28T11:58:49;12.30;99.90
63260;DHT22;49390;51.380;0.098;2024-02-28T12:01:17;12.40;99.90
63260;DHT22;49390;51.380;0.098;2024-02-28T12:03:45;12.50;99.90
63260;DHT22;49390;51.380;0.098;2024-02-28T12:06:16;12.60;99.90
63260;DHT22;49390;51.380;0.098;2024-02-28T12:08:45;12.70;99.90
63260;DHT22;49390;51.380;0.098;2024-02-28T12:11:13;12.70;99.90
63260;DHT22;49390;51.380;0.098;2024-02-28T12:13:41;12.70;99.90
63260;DHT22;49390;51.380;0.098;2024-02-28T12:16:10;12.80;99.90
63260;DHT22;49390;51.380;0.098;2024-02-28T12:18:49;12.90;99.90
63260;DHT22;49390;51.380;0.098;2024-02-28T12:21:17;12.90;99.90
63260;DHT22;49390;51.380;0.098;2024-02-28T12:23:46;12.90;99.90
63260;DHT22;49390;51.380;0.098;2024-02-28T12:26:17;12.90;99.90
63260;DHT22;49390;51.380;0.098;2024-02-28T12:28:46;12.80;99.90
63260;DHT22;49390;51.380;0.098;2024-02-28T12:31:14;12.80;99.90
63260;DHT22;49390;51.380;0.098;2024-02-28T12:33:42;12.80;99.90
63260;DHT22;49390;51.380;0.098;2024-02-28T12:36:10;12.80;99.80
63260;DHT22;49390;51.380;0.098;2024-02-28T12:38:39;12.80;99.60
63260;DHT22;49390;51.380;0.098;2024-02-28T12:41:08;12.80;99.70
63260;DHT22;49390;51.380;0.098;2024-02-28T12:43:53;12.80;99.50
63260;DHT22;49390;51.380;0.098;2024-02-28T12:46:21;12.80;99.40
63260;DHT22;49390;51.380;0.098;2024-02-28T12:48:49;12.80;99.00
63260;DHT22;49390;51.380;0.098;2024-02-28T12:51:36;12.90;98.60
63260;DHT22;49390;51.380;0.098;2024-02-28T12:54:04;12.80;97.90
63260;DHT22;49390;51.380;0.098;2024-02-28T12:56:33;12.80;98.00
63260;DHT22;49390;51.380;0.098;2024-02-28T12:59:00;12.80;98.10
63260;DHT22;49390;51.380;0.098;2024-02-28T13:01:28;12.80;97.20
63260;DHT22;49390;51.380;0.098;2024-02-28T13:03:57;12.80;97.30
63260;DHT22;49390;51.380;0.098;2024-02-28T13:06:25;12.80;97.50
63260;DHT22;49390;51.380;0.098;2024-02-28T13:08:54;12.80;97.30
63260;DHT22;49390;51.380;0.098;2024-02-28T13:11:23;12.80;96.70
63260;DHT22;49390;51.380;0.098;2024-02-28T13:13:52;12.80;96.40
63260;DHT22;49390;51.380;0.098;2024-02-28T13:16:20;12.80;95.90
63260;DHT22;49390;51.380;0.098;2024-02-28T13:18:49;12.80;95.00
63260;DHT22;49390;51.380;0.098;2024-02-28T13:21:17;12.80;94.90
63260;DHT22;49390;51.380;0.098;2024-02-28T13:23:45;12.80;95.10
63260;DHT22;49390;51.380;0.098;2024-02-28T13:26:13;12.80;95.10
63260;DHT22;49390;51.380;0.098;2024-02-28T13:28:47;12.80;94.80
63260;DHT22;49390;51.380;0.098;2024-02-28T13:31:20;12.90;94.30
63260;DHT22;49390;51.380;0.098;2024-02-28T13:33:48;12.90;94.20
63260;DHT22;49390;51.380;0.098;2024-02-28T13:36:17;12.90;94.00
63260;DHT22;49390;51.380;0.098;2024-02-28T13:38:45;12.90;93.90
63260;DHT22;49390;51.380;0.098;2024-02-28T13:41:13;12.90;93.50
63260;DHT22;49390;51.380;0.098;2024-02-28T13:43:40;12.90;93.60
63260;DHT22;49390;51.380;0.098;2024-02-28T13:46:08;12.90;93.80
63260;DHT22;49390;51.380;0.098;2024-02-28T13:48:37;13.00;93.60
63260;DHT22;49390;51.380;0.098;2024-02-28T13:51:06;13.00;93.70
63260;DHT22;49390;51.380;0.098;2024-02-28T13:53:33;13.00;93.60
63260;DHT22;49390;51.380;0.098;2024-02-28T13:56:02;13.00;93.20
63260;DHT22;49390;51.380;0.098;2024-02-28T13:58:29;13.00;93.20
63260;DHT22;49390;51.380;0.098;2024-02-28T14:01:09;13.00;92.70
63260;DHT22;49390;51.380;0.098;2024-02-28T14:03:38;12.90;92.80
63260;DHT22;49390;51.380;0.098;2024-02-28T14:06:10;12.90;92.30
63260;DHT22;49390;51.380;0.098;2024-02-28T14:08:38;12.90;92.30
63260;DHT22;49390;51.380;0.098;2024-02-28T14:11:10;12.80;91.90
63260;DHT22;49390;51.380;0.098;2024-02-28T14:13:38;12.80;91.80
63260;DHT22;49390;51.380;0.098;2024-02-28T14:16:07;12.80;92.20
63260;DHT22;49390;51.380;0.098;2024-02-28T14:18:35;12.80;92.40
63260;DHT22;49390;51.380;0.098;2024-02-28T14:21:04;12.80;92.20
63260;DHT22;49390;51.380;0.098;2024-02-28T14:23:34;12.80;92.00
63260;DHT22;49390;51.380;0.098;2024-02-28T14:26:02;12.70;92.20
63260;DHT22;49390;51.380;0.098;2024-02-28T14:28:31;12.70;92.00
63260;DHT22;49390;51.380;0.098;2024-02-28T14:31:00;12.70;92.20
63260;DHT22;49390;51.380;0.098;2024-02-28T14:33:30;12.70;92.20
63260;DHT22;49390;51.380;0.098;2024-02-28T14:35:58;12.60;91.90
63260;DHT22;49390;51.380;0.098;2024-02-28T14:38:27;12.60;91.80
63260;DHT22;49390;51.380;0.098;2024-02-28T14:40:55;12.60;91.70
63260;DHT22;49390;51.380;0.098;2024-02-28T14:43:23;12.50;91.90
63260;DHT22;49390;51.380;0.098;2024-02-28T14:45:51;12.50;92.00
63260;DHT22;49390;51.380;0.098;2024-02-28T14:48:18;12.50;92.00
63260;DHT22;49390;51.380;0.098;2024-02-28T14:50:46;12.50;92.10
63260;DHT22;49390;51.380;0.098;2024-02-28T14:53:14;12.50;92.30
63260;DHT22;49390;51.380;0.098;2024-02-28T14:55:44;12.50;92.30
63260;DHT22;49390;51.380;0.098;2024-02-28T14:58:14;12.40;92.60
63260;DHT22;49390;51.380;0.098;2024-02-28T15:00:42;12.40;93.00
63260;DHT22;49390;51.380;0.098;2024-02-28T15:03:14;12.40;93.40
63260;DHT22;49390;51.380;0.098;2024-02-28T15:05:43;12.30;93.80
63260;DHT22;49390;51.380;0.098;2024-02-28T15:08:11;12.20;94.20
63260;DHT22;49390;51.380;0.098;2024-02-28T15:10:39;12.30;94.50
63260;DHT22;49390;51.380;0.098;2024-02-28T15:13:07;12.30;95.00
63260;DHT22;49390;51.380;0.098;2024-02-28T15:15:35;12.30;95.40
63260;DHT22;49390;51.380;0.098;2024-02-28T15:18:07;12.20;95.90
63260;DHT22;49390;51.380;0.098;2024-02-28T15:20:35;12.20;96.40
63260;DHT22;49390;51.380;0.098;2024-02-28T15:23:03;12.20;97.20
63260;DHT22;49390;51.380;0.098;2024-02-28T15:25:32;12.20;97.80
63260;DHT22;49390;51.380;0.098;2024-02-28T15:27:59;12.10;98.40
63260;DHT22;49390;51.380;0.098;2024-02-28T15:30:28;12.10;99.40
63260;DHT22;49390;51.380;0.098;2024-02-28T15:32:55;12.10;99.90
63260;DHT22;49390;51.380;0.098;2024-02-28T15:35:23;12.10;99.90
63260;DHT22;49390;51.380;0.098;2024-02-28T15:37:51;12.10;99.90
63260;DHT22;49390;51.380;0.098;2024-02-28T15:40:19;12.00;99.90
63260;DHT22;49390;51.380;0.098;2024-02-28T15:42:49;12.00;99.90
63260;DHT22;49390;51.380;0.098;2024-02-28T15:45:17;12.00;99.90
63260;DHT22;49390;51.380;0.098;2024-02-28T15:47:47;12.00;99.90
63260;DHT22;49390;51.380;0.098;2024-02-28T15:50:15;11.90;99.90
63260;DHT22;49390;51.380;0.098;2024-02-28T15:52:43;11.90;99.90
63260;DHT22;49390;51.380;0.098;2024-02-28T15:55:11;11.90;99.90
63260;DHT22;49390;51.380;0.098;2024-02-28T15:57:39;11.80;99.90
63260;DHT22;49390;51.380;0.098;2024-02-28T16:00:08;11.80;99.90
63260;DHT22;49390;51.380;0.098;2024-02-28T16:02:40;11.90;99.90
63260;DHT22;49390;51.380;0.098;2024-02-28T16:05:08;11.70;99.90
63260;DHT22;49390;51.380;0.098;2024-02-28T16:07:35;11.70;99.90
63260;DHT22;49390;51.380;0.098;2024-02-28T16:10:04;11.60;99.90
63260;DHT22;49390;51.380;0.098;2024-02-28T16:12:31;11.60;99.90
63260;DHT22;49390;51.380;0.098;2024-02-28T16:14:59;11.50;99.90
63260;DHT22;49390;51.380;0.098;2024-02-28T16:17:27;11.50;99.90
63260;DHT22;49390;51.380;0.098;2024-02-28T16:19:57;11.50;99.90
63260;DHT22;49390;51.380;0.098;2024-02-28T16:22:24;11.50;99.90
63260;DHT22;49390;51.380;0.098;2024-02-28T16:24:52;11.50;99.90
63260;DHT22;49390;51.380;0.098;2024-02-28T16:27:20;11.50;99.90
63260;DHT22;49390;51.380;0.098;2024-02-28T16:29:48;11.50;99.90
63260;DHT22;49390;51.380;0.098;2024-02-28T16:32:16;11.50;99.90
63260;DHT22;49390;51.380;0.098;2024-02-28T16:34:44;11.50;99.90
63260;DHT22;49390;51.380;0.098;2024-02-28T16:37:12;11.50;99.90
63260;DHT22;49390;51.380;0.098;2024-02-28T16:39:40;11.50;99.90
63260;DHT22;49390;51.380;0.098;2024-02-28T16:42:07;11.50;99.90
63260;DHT22;49390;51.380;0.098;2024-02-28T16:44:36;11.40;99.90
63260;DHT22;49390;51.380;0.098;2024-02-28T16:47:04;11.40;99.90
63260;DHT22;49390;51.380;0.098;2024-02-28T16:49:32;11.40;99.90
63260;DHT22;49390;51.380;0.098;2024-02-28T16:52:00;11.40;99.90
63260;DHT22;49390;51.380;0.098;2024-02-28T16:54:28;11.40;99.90
63260;DHT22;49390;51.380;0.098;2024-02-28T16:56:56;11.40;99.90
63260;DHT22;49390;51.380;0.098;2024-02-28T16:59:24;11.30;99.90
63260;DHT22;49390;51.380;0.098;2024-02-28T17:01:51;11.30;99.90
63260;DHT22;49390;51.380;0.098;2024-02-28T17:04:19;11.30;99.90
63260;DHT22;49390;51.380;0.098;2024-02-28T17:06:47;11.30;99.90
63260;DHT22;49390;51.380;0.098;2024-02-28T17:09:17;11.30;99.90
63260;DHT22;49390;51.380;0.098;2024-02-28T17:11:45;11.30;99.90
63260;DHT22;49390;51.380;0.098;2024-02-28T17:14:14;11.30;99.90
63260;DHT22;49390;51.380;0.098;2024-02-28T17:16:41;11.30;99.90
63260;DHT22;49390;51.380;0.098;2024-02-28T17:19:09;11.30;99.90
63260;DHT22;49390;51.380;0.098;2024-02-28T17:21:37;11.30;99.90
63260;DHT22;49390;51.380;0.098;2024-02-28T17:24:06;11.30;99.90
63260;DHT22;49390;51.380;0.098;2024-02-28T17:26:33;11.30;99.90
63260;DHT22;49390;51.380;0.098;2024-02-28T17:29:05;11.20;99.90
63260;DHT22;49390;51.380;0.098;2024-02-28T17:31:34;11.30;99.90
63260;DHT22;49390;51.380;0.098;2024-02-28T17:34:02;11.30;99.90
63260;DHT22;49390;51.380;0.098;2024-02-28T17:36:30;11.30;99.90
63260;DHT22;49390;51.380;0.098;2024-02-28T17:38:58;11.30;99.90
63260;DHT22;49390;51.380;0.098;2024-02-28T17:41:25;11.30;99.90
63260;DHT22;49390;51.380;0.098;2024-02-28T17:43:53;11.30;99.90
63260;DHT22;49390;51.380;0.098;2024-02-28T17:46:21;11.30;99.90
63260;DHT22;49390;51.380;0.098;2024-02-28T17:48:49;11.30;99.90
63260;DHT22;49390;51.380;0.098;2024-02-28T17:51:17;11.30;99.90
63260;DHT22;49390;51.380;0.098;2024-02-28T17:53:45;11.30;99.90
63260;DHT22;49390;51.380;0.098;2024-02-28T17:56:13;11.20;99.90
63260;DHT22;49390;51.380;0.098;2024-02-28T17:58:41;11.20;99.90
63260;DHT22;49390;51.380;0.098;2024-02-28T18:01:09;11.20;99.90
63260;DHT22;49390;51.380;0.098;2024-02-28T18:03:37;11.20;99.90
63260;DHT22;49390;51.380;0.098;2024-02-28T18:06:07;11.20;99.90
63260;DHT22;49390;51.380;0.098;2024-02-28T18:08:36;11.20;99.90
63260;DHT22;49390;51.380;0.098;2024-02-28T18:11:04;11.20;99.90
63260;DHT22;49390;51.380;0.098;2024-02-28T18:13:33;11.20;99.90
63260;DHT22;49390;51.380;0.098;2024-02-28T18:16:01;11.20;99.90
63260;DHT22;49390;51.380;0.098;2024-02-28T18:18:29;11.20;99.90
63260;DHT22;49390;51.380;0.098;2024-02-28T18:20:57;11.20;99.90
63260;DHT22;49390;51.380;0.098;2024-02-28T18:23:27;11.20;99.90
63260;DHT22;49390;51.380;0.098;2024-02-28T18:26:02;11.20;99.90
63260;DHT22;49390;51.380;0.098;2024-02-28T18:28:30;11.20;99.90
63260;DHT22;49390;51.380;0.098;2024-02-28T18:31:04;11.20;99.90
63260;DHT22;49390;51.380;0.098;2024-02-28T18:33:35;11.20;99.90
63260;DHT22;49390;51.380;0.098;2024-02-28T18:36:03;11.20;99.90
63260;DHT22;49390;51.380;0.098;2024-02-28T18:38:31;11.20;99.90